sensor_id;sensor_type;location;lat;lon;timestamp;P1;durP1;ratioP1;P2;durP2;ratioP2
20855;SDS011;63058;49.424;8.420;2023-08-06T00:00:08;2.30;;;1.50;;
20855;SDS011;63058;49.424;8.420;2023-08-06T00:02:34;2.10;;;1.30;;
20855;SDS011;63058;49.424;8.420;2023-08-06T00:05:00;2.03;;;1.30;;
20855;SDS011;63058;49.424;8.420;2023-08-06T00:07:26;1.80;;;1.35;;
20855;SDS011;63058;49.424;8.420;2023-08-06T00:09:51;1.95;;;1.40;;
20855;SDS011;63058;49.424;8.420;2023-08-06T00:12:17;2.17;;;1.77;;
20855;SDS011;63058;49.424;8.420;2023-08-06T00:14:43;1.92;;;1.40;;
20855;SDS011;63058;49.424;8.420;2023-08-06T00:17:08;1.60;;;1.40;;
20855;SDS011;63058;49.424;8.420;2023-08-06T00:19:34;1.65;;;1.17;;
20855;SDS011;63058;49.424;8.420;2023-08-06T00:22:00;3.33;;;1.30;;
20855;SDS011;63058;49.424;8.420;2023-08-06T00:24:26;1.80;;;1.40;;
20855;SDS011;63058;49.424;8.420;2023-08-06T00:26:52;1.40;;;1.27;;
20855;SDS011;63058;49.424;8.420;2023-08-06T00:29:18;2.08;;;1.55;;
20855;SDS011;63058;49.424;8.420;2023-08-06T00:31:44;1.80;;;1.42;;
20855;SDS011;63058;49.424;8.420;2023-08-06T00:34:09;1.95;;;1.40;;
20855;SDS011;63058;49.424;8.420;2023-08-06T00:36:35;1.73;;;1.20;;
20855;SDS011;63058;49.424;8.420;2023-08-06T00:39:00;1.88;;;1.17;;
20855;SDS011;63058;49.424;8.420;2023-08-06T00:41:27;2.28;;;1.25;;
20855;SDS011;63058;49.424;8.420;2023-08-06T00:43:52;1.83;;;1.17;;
20855;SDS011;63058;49.424;8.420;2023-08-06T00:46:18;3.15;;;1.30;;
20855;SDS011;63058;49.424;8.420;2023-08-06T00:48:44;1.88;;;1.20;;
20855;SDS011;63058;49.424;8.420;2023-08-06T00:51:10;3.72;;;1.17;;
20855;SDS011;63058;49.424;8.420;2023-08-06T00:53:37;2.20;;;1.20;;
20855;SDS011;63058;49.424;8.420;2023-08-06T00:56:03;1.48;;;1.30;;
20855;SDS011;63058;49.424;8.420;2023-08-06T00:58:29;2.03;;;1.20;;
20855;SDS011;63058;49.424;8.420;2023-08-06T01:00:55;2.35;;;1.50;;
20855;SDS011;63058;49.424;8.420;2023-08-06T01:03:21;1.50;;;1.35;;
20855;SDS011;63058;49.424;8.420;2023-08-06T01:05:47;1.30;;;1.20;;
20855;SDS011;63058;49.424;8.420;2023-08-06T01:08:19;1.67;;;1.30;;
20855;SDS011;63058;49.424;8.420;2023-08-06T01:13:43;1.45;;;1.20;;
20855;SDS011;63058;49.424;8.420;2023-08-06T01:16:13;2.83;;;1.35;;
20855;SDS011;63058;49.424;8.420;2023-08-06T01:18:42;1.25;;;1.13;;
20855;SDS011;63058;49.424;8.420;2023-08-06T01:21:12;2.15;;;1.30;;
20855;SDS011;63058;49.424;8.420;2023-08-06T01:23:38;2.33;;;1.38;;
20855;SDS011;63058;49.424;8.420;2023-08-06T01:26:14;2.55;;;1.30;;
20855;SDS011;63058;49.424;8.420;2023-08-06T01:28:51;1.88;;;1.30;;
20855;SDS011;63058;49.424;8.420;2023-08-06T01:31:21;4.10;;;1.27;;
20855;SDS011;63058;49.424;8.420;2023-08-06T01:33:50;2.67;;;1.20;;
20855;SDS011;63058;49.424;8.420;2023-08-06T01:36:18;2.55;;;1.13;;
20855;SDS011;63058;49.424;8.420;2023-08-06T01:38:45;2.65;;;1.30;;
20855;SDS011;63058;49.424;8.420;2023-08-06T01:41:11;1.67;;;1.00;;
20855;SDS011;63058;49.424;8.420;2023-08-06T01:43:37;1.58;;;1.15;;
20855;SDS011;63058;49.424;8.420;2023-08-06T01:46:02;1.63;;;1.20;;
20855;SDS011;63058;49.424;8.420;2023-08-06T01:48:28;1.70;;;1.20;;
20855;SDS011;63058;49.424;8.420;2023-08-06T01:50:53;2.08;;;1.25;;
20855;SDS011;63058;49.424;8.420;2023-08-06T01:53:19;3.38;;;1.27;;
20855;SDS011;63058;49.424;8.420;2023-08-06T01:55:48;1.50;;;1.25;;
20855;SDS011;63058;49.424;8.420;2023-08-06T01:58:14;1.90;;;1.08;;
20855;SDS011;63058;49.424;8.420;2023-08-06T02:00:40;1.88;;;1.10;;
20855;SDS011;63058;49.424;8.420;2023-08-06T02:03:06;1.60;;;1.30;;
20855;SDS011;63058;49.424;8.420;2023-08-06T02:05:32;2.85;;;1.30;;
20855;SDS011;63058;49.424;8.420;2023-08-06T02:07:57;1.73;;;1.25;;
20855;SDS011;63058;49.424;8.420;2023-08-06T02:10:23;1.92;;;1.38;;
20855;SDS011;63058;49.424;8.420;2023-08-06T02:12:49;2.75;;;1.30;;
20855;SDS011;63058;49.424;8.420;2023-08-06T02:15:14;1.48;;;1.20;;
20855;SDS011;63058;49.424;8.420;2023-08-06T02:17:40;2.55;;;1.23;;
20855;SDS011;63058;49.424;8.420;2023-08-06T02:20:06;1.55;;;1.10;;
20855;SDS011;63058;49.424;8.420;2023-08-06T02:22:32;3.30;;;1.40;;
20855;SDS011;63058;49.424;8.420;2023-08-06T02:24:58;5.55;;;1.33;;
20855;SDS011;63058;49.424;8.420;2023-08-06T02:27:24;2.28;;;1.20;;
20855;SDS011;63058;49.424;8.420;2023-08-06T02:29:49;4.65;;;1.52;;
20855;SDS011;63058;49.424;8.420;2023-08-06T02:32:15;3.35;;;1.23;;
20855;SDS011;63058;49.424;8.420;2023-08-06T02:34:41;2.25;;;1.42;;
20855;SDS011;63058;49.424;8.420;2023-08-06T02:37:06;1.38;;;1.08;;
20855;SDS011;63058;49.424;8.420;2023-08-06T02:39:32;2.35;;;1.50;;
20855;SDS011;63058;49.424;8.420;2023-08-06T02:41:58;2.30;;;1.23;;
20855;SDS011;63058;49.424;8.420;2023-08-06T02:44:27;1.85;;;1.33;;
20855;SDS011;63058;49.424;8.420;2023-08-06T02:46:53;1.92;;;1.33;;
20855;SDS011;63058;49.424;8.420;2023-08-06T02:49:18;2.17;;;1.55;;
20855;SDS011;63058;49.424;8.420;2023-08-06T02:51:47;1.70;;;1.17;;
20855;SDS011;63058;49.424;8.420;2023-08-06T02:54:13;2.45;;;1.33;;
20855;SDS011;63058;49.424;8.420;2023-08-06T02:56:38;1.95;;;1.13;;
20855;SDS011;63058;49.424;8.420;2023-08-06T02:59:07;2.42;;;1.30;;
20855;SDS011;63058;49.424;8.420;2023-08-06T03:01:33;2.83;;;1.10;;
20855;SDS011;63058;49.424;8.420;2023-08-06T03:03:58;2.75;;;1.20;;
20855;SDS011;63058;49.424;8.420;2023-08-06T03:06:24;1.73;;;1.35;;
20855;SDS011;63058;49.424;8.420;2023-08-06T03:08:50;4.20;;;1.15;;
20855;SDS011;63058;49.424;8.420;2023-08-06T03:11:15;2.38;;;1.42;;
20855;SDS011;63058;49.424;8.420;2023-08-06T03:13:41;1.40;;;1.20;;
20855;SDS011;63058;49.424;8.420;2023-08-06T03:16:06;2.53;;;1.23;;
20855;SDS011;63058;49.424;8.420;2023-08-06T03:18:32;3.97;;;1.33;;
20855;SDS011;63058;49.424;8.420;2023-08-06T03:20:58;1.73;;;1.20;;
20855;SDS011;63058;49.424;8.420;2023-08-06T03:23:23;2.47;;;1.00;;
20855;SDS011;63058;49.424;8.420;2023-08-06T03:25:49;2.25;;;1.27;;
20855;SDS011;63058;49.424;8.420;2023-08-06T03:28:15;2.08;;;1.30;;
20855;SDS011;63058;49.424;8.420;2023-08-06T03:30:40;1.70;;;1.10;;
20855;SDS011;63058;49.424;8.420;2023-08-06T03:33:06;1.75;;;1.10;;
20855;SDS011;63058;49.424;8.420;2023-08-06T03:35:32;3.42;;;1.10;;
20855;SDS011;63058;49.424;8.420;2023-08-06T03:37:57;3.03;;;1.02;;
20855;SDS011;63058;49.424;8.420;2023-08-06T03:40:23;2.25;;;1.10;;
20855;SDS011;63058;49.424;8.420;2023-08-06T03:42:48;1.85;;;0.82;;
20855;SDS011;63058;49.424;8.420;2023-08-06T03:45:14;1.60;;;0.90;;
20855;SDS011;63058;49.424;8.420;2023-08-06T03:47:40;1.95;;;1.00;;
20855;SDS011;63058;49.424;8.420;2023-08-06T03:50:06;2.63;;;1.10;;
20855;SDS011;63058;49.424;8.420;2023-08-06T03:52:32;1.25;;;0.90;;
20855;SDS011;63058;49.424;8.420;2023-08-06T03:54:57;1.95;;;0.98;;
20855;SDS011;63058;49.424;8.420;2023-08-06T03:57:23;2.53;;;1.05;;
20855;SDS011;63058;49.424;8.420;2023-08-06T03:59:48;5.05;;;1.15;;
20855;SDS011;63058;49.424;8.420;2023-08-06T04:02:14;2.80;;;1.20;;
20855;SDS011;63058;49.424;8.420;2023-08-06T04:04:40;3.47;;;1.05;;
20855;SDS011;63058;49.424;8.420;2023-08-06T04:07:05;1.10;;;1.00;;
20855;SDS011;63058;49.424;8.420;2023-08-06T04:09:31;1.70;;;1.20;;
20855;SDS011;63058;49.424;8.420;2023-08-06T04:11:57;2.30;;;1.17;;
20855;SDS011;63058;49.424;8.420;2023-08-06T04:14:23;1.85;;;1.13;;
20855;SDS011;63058;49.424;8.420;2023-08-06T04:16:51;1.73;;;1.00;;
20855;SDS011;63058;49.424;8.420;2023-08-06T04:19:16;2.28;;;1.15;;
20855;SDS011;63058;49.424;8.420;2023-08-06T04:21:42;1.88;;;1.00;;
20855;SDS011;63058;49.424;8.420;2023-08-06T04:24:07;1.52;;;0.93;;
20855;SDS011;63058;49.424;8.420;2023-08-06T04:26:33;1.95;;;1.05;;
20855;SDS011;63058;49.424;8.420;2023-08-06T04:28:59;1.55;;;0.98;;
20855;SDS011;63058;49.424;8.420;2023-08-06T04:31:24;2.40;;;0.90;;
20855;SDS011;63058;49.424;8.420;2023-08-06T04:33:50;1.63;;;1.20;;
20855;SDS011;63058;49.424;8.420;2023-08-06T04:36:15;2.45;;;1.00;;
20855;SDS011;63058;49.424;8.420;2023-08-06T04:38:41;2.15;;;0.90;;
20855;SDS011;63058;49.424;8.420;2023-08-06T04:41:10;1.20;;;0.75;;
20855;SDS011;63058;49.424;8.420;2023-08-06T04:43:36;1.05;;;0.70;;
20855;SDS011;63058;49.424;8.420;2023-08-06T04:46:02;1.38;;;0.85;;
20855;SDS011;63058;49.424;8.420;2023-08-06T04:48:27;1.55;;;0.80;;
20855;SDS011;63058;49.424;8.420;2023-08-06T04:50:53;1.60;;;0.60;;
20855;SDS011;63058;49.424;8.420;2023-08-06T04:53:19;1.13;;;0.50;;
20855;SDS011;63058;49.424;8.420;2023-08-06T04:55:45;1.50;;;0.73;;
20855;SDS011;63058;49.424;8.420;2023-08-06T04:58:10;1.50;;;0.55;;
20855;SDS011;63058;49.424;8.420;2023-08-06T05:00:37;1.58;;;0.50;;
20855;SDS011;63058;49.424;8.420;2023-08-06T05:03:03;0.45;;;0.30;;
20855;SDS011;63058;49.424;8.420;2023-08-06T05:05:28;1.02;;;0.43;;
20855;SDS011;63058;49.424;8.420;2023-08-06T05:07:55;0.30;;;0.30;;
20855;SDS011;63058;49.424;8.420;2023-08-06T05:10:24;0.70;;;0.40;;
20855;SDS011;63058;49.424;8.420;2023-08-06T05:12:50;1.05;;;0.57;;
20855;SDS011;63058;49.424;8.420;2023-08-06T05:15:16;1.15;;;0.60;;
20855;SDS011;63058;49.424;8.420;2023-08-06T05:17:41;1.33;;;0.52;;
20855;SDS011;63058;49.424;8.420;2023-08-06T05:20:07;1.73;;;0.60;;
20855;SDS011;63058;49.424;8.420;2023-08-06T05:22:33;2.17;;;0.70;;
20855;SDS011;63058;49.424;8.420;2023-08-06T05:24:59;1.95;;;0.60;;
20855;SDS011;63058;49.424;8.420;2023-08-06T05:27:24;2.20;;;0.52;;
20855;SDS011;63058;49.424;8.420;2023-08-06T05:29:50;2.80;;;0.40;;
20855;SDS011;63058;49.424;8.420;2023-08-06T05:32:21;1.40;;;0.55;;
20855;SDS011;63058;49.424;8.420;2023-08-06T05:34:47;2.85;;;0.70;;
20855;SDS011;63058;49.424;8.420;2023-08-06T05:37:12;1.08;;;0.60;;
20855;SDS011;63058;49.424;8.420;2023-08-06T05:39:38;1.98;;;0.55;;
20855;SDS011;63058;49.424;8.420;2023-08-06T05:42:03;1.85;;;0.60;;
20855;SDS011;63058;49.424;8.420;2023-08-06T05:44:29;0.90;;;0.50;;
20855;SDS011;63058;49.424;8.420;2023-08-06T05:46:55;2.13;;;0.60;;
20855;SDS011;63058;49.424;8.420;2023-08-06T05:49:21;1.50;;;0.60;;
20855;SDS011;63058;49.424;8.420;2023-08-06T05:51:46;1.20;;;0.55;;
20855;SDS011;63058;49.424;8.420;2023-08-06T05:54:12;4.68;;;0.70;;
20855;SDS011;63058;49.424;8.420;2023-08-06T05:56:38;2.28;;;0.57;;
20855;SDS011;63058;49.424;8.420;2023-08-06T05:59:03;3.92;;;0.60;;
20855;SDS011;63058;49.424;8.420;2023-08-06T06:01:29;1.48;;;0.50;;
20855;SDS011;63058;49.424;8.420;2023-08-06T06:03:54;1.98;;;0.65;;
20855;SDS011;63058;49.424;8.420;2023-08-06T06:06:20;2.25;;;0.70;;
20855;SDS011;63058;49.424;8.420;2023-08-06T06:08:46;1.23;;;0.60;;
20855;SDS011;63058;49.424;8.420;2023-08-06T06:11:12;1.15;;;0.50;;
20855;SDS011;63058;49.424;8.420;2023-08-06T06:13:37;1.33;;;0.50;;
20855;SDS011;63058;49.424;8.420;2023-08-06T06:16:03;2.55;;;0.70;;
20855;SDS011;63058;49.424;8.420;2023-08-06T06:18:30;0.70;;;0.50;;
20855;SDS011;63058;49.424;8.420;2023-08-06T06:20:56;1.30;;;0.60;;
20855;SDS011;63058;49.424;8.420;2023-08-06T06:23:21;2.42;;;0.60;;
20855;SDS011;63058;49.424;8.420;2023-08-06T06:25:48;1.67;;;0.60;;
20855;SDS011;63058;49.424;8.420;2023-08-06T06:28:16;2.33;;;0.73;;
20855;SDS011;63058;49.424;8.420;2023-08-06T06:30:42;0.63;;;0.50;;
20855;SDS011;63058;49.424;8.420;2023-08-06T06:33:07;0.40;;;0.40;;
20855;SDS011;63058;49.424;8.420;2023-08-06T06:35:33;1.08;;;0.50;;
20855;SDS011;63058;49.424;8.420;2023-08-06T06:37:59;1.20;;;0.47;;
20855;SDS011;63058;49.424;8.420;2023-08-06T06:40:25;1.35;;;0.45;;
20855;SDS011;63058;49.424;8.420;2023-08-06T06:42:51;3.45;;;0.50;;
20855;SDS011;63058;49.424;8.420;2023-08-06T06:45:16;0.93;;;0.50;;
20855;SDS011;63058;49.424;8.420;2023-08-06T06:47:42;2.45;;;0.60;;
20855;SDS011;63058;49.424;8.420;2023-08-06T06:50:08;0.47;;;0.35;;
20855;SDS011;63058;49.424;8.420;2023-08-06T06:52:34;1.25;;;0.50;;
20855;SDS011;63058;49.424;8.420;2023-08-06T06:55:00;0.50;;;0.35;;
20855;SDS011;63058;49.424;8.420;2023-08-06T06:57:26;1.58;;;0.30;;
20855;SDS011;63058;49.424;8.420;2023-08-06T06:59:51;1.65;;;0.50;;
20855;SDS011;63058;49.424;8.420;2023-08-06T07:02:17;1.13;;;0.40;;
20855;SDS011;63058;49.424;8.420;2023-08-06T07:04:43;1.15;;;0.40;;
20855;SDS011;63058;49.424;8.420;2023-08-06T07:07:08;1.73;;;0.40;;
20855;SDS011;63058;49.424;8.420;2023-08-06T07:09:35;0.77;;;0.30;;
20855;SDS011;63058;49.424;8.420;2023-08-06T07:12:00;1.80;;;0.32;;
20855;SDS011;63058;49.424;8.420;2023-08-06T07:14:26;0.57;;;0.30;;
20855;SDS011;63058;49.424;8.420;2023-08-06T07:16:53;0.40;;;0.20;;
20855;SDS011;63058;49.424;8.420;2023-08-06T07:19:19;0.70;;;0.20;;
20855;SDS011;63058;49.424;8.420;2023-08-06T07:21:44;1.27;;;0.40;;
20855;SDS011;63058;49.424;8.420;2023-08-06T07:24:11;0.35;;;0.25;;
20855;SDS011;63058;49.424;8.420;2023-08-06T07:26:37;0.38;;;0.30;;
20855;SDS011;63058;49.424;8.420;2023-08-06T07:29:03;0.95;;;0.30;;
20855;SDS011;63058;49.424;8.420;2023-08-06T07:31:28;0.88;;;0.47;;
20855;SDS011;63058;49.424;8.420;2023-08-06T07:33:54;0.50;;;0.25;;
20855;SDS011;63058;49.424;8.420;2023-08-06T07:36:20;0.32;;;0.20;;
20855;SDS011;63058;49.424;8.420;2023-08-06T07:38:45;0.77;;;0.30;;
20855;SDS011;63058;49.424;8.420;2023-08-06T07:41:11;1.10;;;0.30;;
20855;SDS011;63058;49.424;8.420;2023-08-06T07:43:37;0.50;;;0.20;;
20855;SDS011;63058;49.424;8.420;2023-08-06T07:46:02;1.08;;;0.30;;
20855;SDS011;63058;49.424;8.420;2023-08-06T07:48:28;0.10;;;0.10;;
20855;SDS011;63058;49.424;8.420;2023-08-06T07:50:54;0.50;;;0.20;;
20855;SDS011;63058;49.424;8.420;2023-08-06T07:53:21;0.20;;;0.20;;
20855;SDS011;63058;49.424;8.420;2023-08-06T07:55:50;0.43;;;0.25;;
20855;SDS011;63058;49.424;8.420;2023-08-06T07:58:17;1.63;;;0.60;;
20855;SDS011;63058;49.424;8.420;2023-08-06T08:00:43;0.82;;;0.20;;
20855;SDS011;63058;49.424;8.420;2023-08-06T08:03:11;0.52;;;0.30;;
20855;SDS011;63058;49.424;8.420;2023-08-06T08:05:38;0.60;;;0.30;;
20855;SDS011;63058;49.424;8.420;2023-08-06T08:08:04;0.20;;;0.20;;
20855;SDS011;63058;49.424;8.420;2023-08-06T08:10:30;0.40;;;0.30;;
20855;SDS011;63058;49.424;8.420;2023-08-06T08:12:56;3.58;;;0.40;;
20855;SDS011;63058;49.424;8.420;2023-08-06T08:15:22;3.03;;;0.60;;
20855;SDS011;63058;49.424;8.420;2023-08-06T08:17:47;1.50;;;0.30;;
20855;SDS011;63058;49.424;8.420;2023-08-06T08:20:15;1.15;;;0.40;;
20855;SDS011;63058;49.424;8.420;2023-08-06T08:22:41;1.15;;;0.20;;
20855;SDS011;63058;49.424;8.420;2023-08-06T08:25:07;0.95;;;0.20;;
20855;SDS011;63058;49.424;8.420;2023-08-06T08:27:32;0.43;;;0.20;;
20855;SDS011;63058;49.424;8.420;2023-08-06T08:29:58;0.10;;;0.10;;
20855;SDS011;63058;49.424;8.420;2023-08-06T08:32:23;0.25;;;0.20;;
20855;SDS011;63058;49.424;8.420;2023-08-06T08:34:49;0.20;;;0.13;;
20855;SDS011;63058;49.424;8.420;2023-08-06T08:37:15;1.55;;;0.30;;
20855;SDS011;63058;49.424;8.420;2023-08-06T08:39:40;0.40;;;0.25;;
20855;SDS011;63058;49.424;8.420;2023-08-06T08:42:06;0.20;;;0.20;;
20855;SDS011;63058;49.424;8.420;2023-08-06T08:44:32;1.05;;;0.20;;
20855;SDS011;63058;49.424;8.420;2023-08-06T08:46:59;0.20;;;0.20;;
20855;SDS011;63058;49.424;8.420;2023-08-06T08:49:26;0.55;;;0.30;;
20855;SDS011;63058;49.424;8.420;2023-08-06T08:51:53;0.30;;;0.20;;
20855;SDS011;63058;49.424;8.420;2023-08-06T08:54:21;0.20;;;0.10;;
20855;SDS011;63058;49.424;8.420;2023-08-06T08:56:48;0.28;;;0.20;;
20855;SDS011;63058;49.424;8.420;2023-08-06T08:59:14;0.20;;;0.20;;
20855;SDS011;63058;49.424;8.420;2023-08-06T09:01:39;0.20;;;0.20;;
20855;SDS011;63058;49.424;8.420;2023-08-06T09:04:06;0.20;;;0.20;;
20855;SDS011;63058;49.424;8.420;2023-08-06T09:06:33;0.75;;;0.30;;
20855;SDS011;63058;49.424;8.420;2023-08-06T09:09:11;0.30;;;0.17;;
20855;SDS011;63058;49.424;8.420;2023-08-06T09:11:42;0.10;;;0.10;;
20855;SDS011;63058;49.424;8.420;2023-08-06T09:14:08;0.30;;;0.17;;
20855;SDS011;63058;49.424;8.420;2023-08-06T09:16:37;0.20;;;0.20;;
20855;SDS011;63058;49.424;8.420;2023-08-06T09:19:06;0.20;;;0.20;;
20855;SDS011;63058;49.424;8.420;2023-08-06T09:21:40;0.20;;;0.20;;
20855;SDS011;63058;49.424;8.420;2023-08-06T09:24:10;0.13;;;0.13;;
20855;SDS011;63058;49.424;8.420;2023-08-06T09:26:40;0.10;;;0.10;;
20855;SDS011;63058;49.424;8.420;2023-08-06T09:29:07;0.10;;;0.10;;
20855;SDS011;63058;49.424;8.420;2023-08-06T09:31:45;0.60;;;0.30;;
20855;SDS011;63058;49.424;8.420;2023-08-06T09:34:32;0.47;;;0.30;;
20855;SDS011;63058;49.424;8.420;2023-08-06T09:36:56;0.30;;;0.20;;
20855;SDS011;63058;49.424;8.420;2023-08-06T09:39:29;0.22;;;0.17;;
20855;SDS011;63058;49.424;8.420;2023-08-06T09:41:56;0.13;;;0.13;;
20855;SDS011;63058;49.424;8.420;2023-08-06T09:44:24;3.85;;;0.30;;
20855;SDS011;63058;49.424;8.420;2023-08-06T09:46:57;0.10;;;0.10;;
20855;SDS011;63058;49.424;8.420;2023-08-06T09:49:28;0.22;;;0.22;;
20855;SDS011;63058;49.424;8.420;2023-08-06T09:52:06;0.43;;;0.30;;
20855;SDS011;63058;49.424;8.420;2023-08-06T09:54:38;0.17;;;0.10;;
20855;SDS011;63058;49.424;8.420;2023-08-06T09:57:04;0.38;;;0.10;;
20855;SDS011;63058;49.424;8.420;2023-08-06T09:59:32;0.68;;;0.20;;
20855;SDS011;63058;49.424;8.420;2023-08-06T10:01:57;0.13;;;0.10;;
20855;SDS011;63058;49.424;8.420;2023-08-06T10:04:23;0.20;;;0.20;;
20855;SDS011;63058;49.424;8.420;2023-08-06T10:06:49;0.20;;;0.13;;
20855;SDS011;63058;49.424;8.420;2023-08-06T10:09:15;0.10;;;0.10;;
20855;SDS011;63058;49.424;8.420;2023-08-06T10:11:45;0.20;;;0.10;;
20855;SDS011;63058;49.424;8.420;2023-08-06T10:14:24;0.17;;;0.17;;
20855;SDS011;63058;49.424;8.420;2023-08-06T10:16:56;0.40;;;0.20;;
20855;SDS011;63058;49.424;8.420;2023-08-06T10:19:23;0.10;;;0.10;;
20855;SDS011;63058;49.424;8.420;2023-08-06T10:22:23;0.10;;;0.10;;
20855;SDS011;63058;49.424;8.420;2023-08-06T10:24:52;0.10;;;0.10;;
20855;SDS011;63058;49.424;8.420;2023-08-06T10:27:19;2.17;;;0.10;;
20855;SDS011;63058;49.424;8.420;2023-08-06T10:30:23;0.40;;;0.10;;
20855;SDS011;63058;49.424;8.420;2023-08-06T10:33:00;0.20;;;0.20;;
20855;SDS011;63058;49.424;8.420;2023-08-06T10:35:30;0.20;;;0.20;;
20855;SDS011;63058;49.424;8.420;2023-08-06T10:38:04;0.25;;;0.20;;
20855;SDS011;63058;49.424;8.420;2023-08-06T10:40:35;0.20;;;0.20;;
20855;SDS011;63058;49.424;8.420;2023-08-06T10:43:05;0.20;;;0.20;;
20855;SDS011;63058;49.424;8.420;2023-08-06T10:45:36;0.20;;;0.20;;
20855;SDS011;63058;49.424;8.420;2023-08-06T10:48:03;0.35;;;0.20;;
20855;SDS011;63058;49.424;8.420;2023-08-06T10:50:29;0.20;;;0.20;;
20855;SDS011;63058;49.424;8.420;2023-08-06T10:52:56;0.70;;;0.20;;
20855;SDS011;63058;49.424;8.420;2023-08-06T10:55:26;0.20;;;0.20;;
20855;SDS011;63058;49.424;8.420;2023-08-06T10:57:53;0.20;;;0.20;;
20855;SDS011;63058;49.424;8.420;2023-08-06T11:00:20;0.30;;;0.20;;
20855;SDS011;63058;49.424;8.420;2023-08-06T11:02:48;1.35;;;0.35;;
20855;SDS011;63058;49.424;8.420;2023-08-06T11:05:15;0.70;;;0.30;;
20855;SDS011;63058;49.424;8.420;2023-08-06T11:07:42;0.30;;;0.30;;
20855;SDS011;63058;49.424;8.420;2023-08-06T11:10:08;0.40;;;0.30;;
20855;SDS011;63058;49.424;8.420;2023-08-06T11:12:35;0.10;;;0.10;;
20855;SDS011;63058;49.424;8.420;2023-08-06T11:15:01;1.65;;;0.28;;
20855;SDS011;63058;49.424;8.420;2023-08-06T11:17:28;1.02;;;0.50;;
20855;SDS011;63058;49.424;8.420;2023-08-06T11:19:58;0.30;;;0.22;;
20855;SDS011;63058;49.424;8.420;2023-08-06T11:22:25;1.42;;;0.40;;
20855;SDS011;63058;49.424;8.420;2023-08-06T11:24:52;0.30;;;0.30;;
20855;SDS011;63058;49.424;8.420;2023-08-06T11:27:18;0.50;;;0.30;;
20855;SDS011;63058;49.424;8.420;2023-08-06T11:29:44;0.45;;;0.30;;
20855;SDS011;63058;49.424;8.420;2023-08-06T11:32:10;1.58;;;0.45;;
20855;SDS011;63058;49.424;8.420;2023-08-06T11:34:36;0.47;;;0.30;;
20855;SDS011;63058;49.424;8.420;2023-08-06T11:37:05;0.30;;;0.30;;
20855;SDS011;63058;49.424;8.420;2023-08-06T11:39:35;0.30;;;0.30;;
20855;SDS011;63058;49.424;8.420;2023-08-06T11:42:07;0.25;;;0.20;;
20855;SDS011;63058;49.424;8.420;2023-08-06T11:44:36;0.52;;;0.32;;
20855;SDS011;63058;49.424;8.420;2023-08-06T11:47:03;0.40;;;0.40;;
20855;SDS011;63058;49.424;8.420;2023-08-06T11:49:37;0.65;;;0.50;;
20855;SDS011;63058;49.424;8.420;2023-08-06T11:52:14;0.47;;;0.40;;
20855;SDS011;63058;49.424;8.420;2023-08-06T11:57:28;1.13;;;0.60;;
20855;SDS011;63058;49.424;8.420;2023-08-06T11:59:58;0.45;;;0.40;;
20855;SDS011;63058;49.424;8.420;2023-08-06T12:02:27;0.82;;;0.50;;
20855;SDS011;63058;49.424;8.420;2023-08-06T12:05:32;0.45;;;0.45;;
20855;SDS011;63058;49.424;8.420;2023-08-06T12:07:58;1.25;;;0.60;;
20855;SDS011;63058;49.424;8.420;2023-08-06T12:10:26;0.55;;;0.50;;
20855;SDS011;63058;49.424;8.420;2023-08-06T12:12:53;0.88;;;0.68;;
20855;SDS011;63058;49.424;8.420;2023-08-06T12:15:19;2.65;;;0.52;;
20855;SDS011;63058;49.424;8.420;2023-08-06T12:17:45;0.98;;;0.50;;
20855;SDS011;63058;49.424;8.420;2023-08-06T12:20:11;1.02;;;0.55;;
20855;SDS011;63058;49.424;8.420;2023-08-06T12:22:37;1.95;;;0.60;;
20855;SDS011;63058;49.424;8.420;2023-08-06T12:25:05;1.27;;;0.75;;
20855;SDS011;63058;49.424;8.420;2023-08-06T12:27:33;0.57;;;0.52;;
20855;SDS011;63058;49.424;8.420;2023-08-06T12:30:00;0.75;;;0.60;;
20855;SDS011;63058;49.424;8.420;2023-08-06T12:32:25;1.17;;;0.60;;
20855;SDS011;63058;49.424;8.420;2023-08-06T12:34:51;0.82;;;0.60;;
20855;SDS011;63058;49.424;8.420;2023-08-06T12:37:17;1.13;;;0.70;;
20855;SDS011;63058;49.424;8.420;2023-08-06T12:39:42;1.02;;;0.50;;
20855;SDS011;63058;49.424;8.420;2023-08-06T12:42:08;1.05;;;0.40;;
20855;SDS011;63058;49.424;8.420;2023-08-06T12:44:35;1.15;;;0.40;;
20855;SDS011;63058;49.424;8.420;2023-08-06T12:47:01;0.60;;;0.40;;
20855;SDS011;63058;49.424;8.420;2023-08-06T12:49:27;0.32;;;0.32;;
20855;SDS011;63058;49.424;8.420;2023-08-06T12:51:53;0.50;;;0.35;;
20855;SDS011;63058;49.424;8.420;2023-08-06T12:54:21;0.52;;;0.40;;
20855;SDS011;63058;49.424;8.420;2023-08-06T12:56:47;0.68;;;0.43;;
20855;SDS011;63058;49.424;8.420;2023-08-06T12:59:14;1.15;;;0.55;;
20855;SDS011;63058;49.424;8.420;2023-08-06T13:01:40;0.50;;;0.40;;
20855;SDS011;63058;49.424;8.420;2023-08-06T13:04:07;0.90;;;0.50;;
20855;SDS011;63058;49.424;8.420;2023-08-06T13:06:32;0.85;;;0.40;;
20855;SDS011;63058;49.424;8.420;2023-08-06T13:09:10;1.13;;;0.32;;
20855;SDS011;63058;49.424;8.420;2023-08-06T13:11:37;1.00;;;0.40;;
20855;SDS011;63058;49.424;8.420;2023-08-06T13:14:07;0.32;;;0.28;;
20855;SDS011;63058;49.424;8.420;2023-08-06T13:16:38;0.55;;;0.30;;
20855;SDS011;63058;49.424;8.420;2023-08-06T13:19:06;0.45;;;0.40;;
20855;SDS011;63058;49.424;8.420;2023-08-06T13:22:14;0.32;;;0.32;;
20855;SDS011;63058;49.424;8.420;2023-08-06T13:24:27;1.05;;;0.60;;
20855;SDS011;63058;49.424;8.420;2023-08-06T13:26:53;0.95;;;0.50;;
20855;SDS011;63058;49.424;8.420;2023-08-06T13:29:18;0.65;;;0.50;;
20855;SDS011;63058;49.424;8.420;2023-08-06T13:31:44;2.50;;;0.50;;
20855;SDS011;63058;49.424;8.420;2023-08-06T13:34:10;0.47;;;0.40;;
20855;SDS011;63058;49.424;8.420;2023-08-06T13:36:35;0.65;;;0.40;;
20855;SDS011;63058;49.424;8.420;2023-08-06T13:39:01;0.73;;;0.40;;
20855;SDS011;63058;49.424;8.420;2023-08-06T13:41:28;2.17;;;0.40;;
20855;SDS011;63058;49.424;8.420;2023-08-06T13:43:54;1.08;;;0.40;;
20855;SDS011;63058;49.424;8.420;2023-08-06T13:46:19;0.43;;;0.35;;
20855;SDS011;63058;49.424;8.420;2023-08-06T13:48:45;2.38;;;0.63;;
20855;SDS011;63058;49.424;8.420;2023-08-06T13:51:12;0.77;;;0.30;;
20855;SDS011;63058;49.424;8.420;2023-08-06T13:53:38;1.85;;;0.50;;
20855;SDS011;63058;49.424;8.420;2023-08-06T13:56:05;0.30;;;0.30;;
20855;SDS011;63058;49.424;8.420;2023-08-06T13:58:31;1.10;;;0.40;;
20855;SDS011;63058;49.424;8.420;2023-08-06T14:00:57;0.73;;;0.40;;
20855;SDS011;63058;49.424;8.420;2023-08-06T14:03:23;0.52;;;0.52;;
20855;SDS011;63058;49.424;8.420;2023-08-06T14:05:49;0.85;;;0.40;;
20855;SDS011;63058;49.424;8.420;2023-08-06T14:08:15;1.35;;;0.45;;
20855;SDS011;63058;49.424;8.420;2023-08-06T14:10:43;0.40;;;0.30;;
20855;SDS011;63058;49.424;8.420;2023-08-06T14:13:09;0.80;;;0.60;;
20855;SDS011;63058;49.424;8.420;2023-08-06T14:15:35;0.80;;;0.50;;
20855;SDS011;63058;49.424;8.420;2023-08-06T14:18:01;1.20;;;0.70;;
20855;SDS011;63058;49.424;8.420;2023-08-06T14:20:27;1.20;;;0.68;;
20855;SDS011;63058;49.424;8.420;2023-08-06T14:22:53;0.43;;;0.43;;
20855;SDS011;63058;49.424;8.420;2023-08-06T14:25:19;1.55;;;0.73;;
20855;SDS011;63058;49.424;8.420;2023-08-06T14:27:45;0.47;;;0.45;;
20855;SDS011;63058;49.424;8.420;2023-08-06T14:30:11;0.88;;;0.50;;
20855;SDS011;63058;49.424;8.420;2023-08-06T14:32:36;0.85;;;0.40;;
20855;SDS011;63058;49.424;8.420;2023-08-06T14:35:02;0.55;;;0.40;;
20855;SDS011;63058;49.424;8.420;2023-08-06T14:37:28;0.30;;;0.30;;
20855;SDS011;63058;49.424;8.420;2023-08-06T14:39:54;0.82;;;0.35;;
20855;SDS011;63058;49.424;8.420;2023-08-06T14:42:19;0.60;;;0.60;;
20855;SDS011;63058;49.424;8.420;2023-08-06T14:44:45;0.50;;;0.50;;
20855;SDS011;63058;49.424;8.420;2023-08-06T14:47:11;2.47;;;0.60;;
20855;SDS011;63058;49.424;8.420;2023-08-06T14:49:37;1.17;;;0.43;;
20855;SDS011;63058;49.424;8.420;2023-08-06T14:52:03;2.47;;;0.40;;